Time;durP1;ratioP1;P1;durP2;ratioP2;P2;SDS_P1;SDS_P2;PMS_P1;PMS_P2;Temp;Humidity;BMP_temperature;BMP_pressure;BME280_temperature;BME280_humidity;BME280_pressure;Samples;Min_cycle;Max_cycle;Signal;HPM_P1;HPM_P2
2021/09/20 00:01:14;;;;;;;3.50;3.20;;;22.20;55.40;;;;;;5089291;28;20195;-65
2021/09/20 00:03:46;;;;;;;3.30;3.10;;;22.20;55.30;;;;;;5081662;28;20672;-65
2021/09/20 00:06:16;;;;;;;3.07;2.87;;;22.20;55.30;;;;;;5072891;28;20194;-65
2021/09/20 00:08:45;;;;;;;3.40;3.10;;;22.20;55.40;;;;;;5084175;28;20266;-65
2021/09/20 00:11:14;;;;;;;3.53;3.23;;;22.20;55.30;;;;;;5066123;28;20228;-65
2021/09/20 00:13:44;;;;;;;3.67;3.00;;;22.20;55.30;;;;;;5084302;28;20207;-65
2021/09/20 00:16:15;;;;;;;3.13;2.87;;;22.20;55.90;;;;;;5089855;28;20217;-65
2021/09/20 00:18:47;;;;;;;3.03;2.83;;;22.20;55.40;;;;;;5071516;28;20553;-65
2021/09/20 00:21:21;;;;;;;2.90;2.60;;;22.20;55.20;;;;;;5087690;28;20273;-65
2021/09/20 00:23:56;;;;;;;3.30;3.10;;;22.20;55.20;;;;;;5085432;28;20791;-65
2021/09/20 00:26:28;;;;;;;2.93;2.70;;;22.20;55.20;;;;;;5084643;28;20200;-65
2021/09/20 00:28:58;;;;;;;3.40;3.10;;;22.20;55.20;;;;;;5088000;28;20229;-65
2021/09/20 00:31:28;;;;;;;3.23;2.93;;;22.20;55.20;;;;;;5079155;28;20646;-65
2021/09/20 00:33:56;;;;;;;4.23;3.43;;;22.20;55.10;;;;;;5090316;28;20193;-65
2021/09/20 00:36:26;;;;;;;4.60;3.87;;;22.20;55.20;;;;;;5090898;28;20235;-65
2021/09/20 00:38:56;;;;;;;3.40;3.10;;;22.10;55.10;;;;;;5074549;28;20212;-65
2021/09/20 00:41:25;;;;;;;3.50;3.20;;;22.10;55.10;;;;;;5070488;28;20201;-65
2021/09/20 00:43:54;;;;;;;3.50;3.20;;;22.10;55.10;;;;;;5056980;28;20860;-65
2021/09/20 00:46:25;;;;;;;3.40;2.97;;;22.10;55.00;;;;;;5084617;28;20865;-65
2021/09/20 00:48:56;;;;;;;4.10;3.70;;;22.10;54.90;;;;;;5069496;28;20220;-66
2021/09/20 00:51:25;;;;;;;3.90;3.50;;;22.10;55.00;;;;;;5087113;28;20645;-65
2021/09/20 00:53:52;;;;;;;4.33;3.63;;;22.10;55.40;;;;;;5027069;28;20212;-65
2021/09/20 00:56:22;;;;;;;3.73;3.43;;;22.10;54.70;;;;;;5084504;28;20262;-65
2021/09/20 00:58:53;;;;;;;3.60;3.30;;;22.10;54.90;;;;;;5078729;28;20192;-65
2021/09/20 01:01:22;;;;;;;4.03;3.40;;;22.10;54.70;;;;;;5088145;28;20223;-65
2021/09/20 01:03:54;;;;;;;3.73;3.43;;;22.10;54.80;;;;;;5086269;28;20210;-65
2021/09/20 01:06:27;;;;;;;4.23;3.83;;;22.10;54.90;;;;;;5087964;28;20685;-66
2021/09/20 01:08:57;;;;;;;3.80;3.50;;;22.10;54.80;;;;;;5063009;28;20200;-66
2021/09/20 01:11:25;;;;;;;3.63;3.33;;;22.10;54.80;;;;;;5087358;28;20539;-66
2021/09/20 01:13:54;;;;;;;3.67;3.37;;;22.10;54.80;;;;;;5073375;28;20205;-66
2021/09/20 01:16:22;;;;;;;4.00;3.70;;;22.00;54.60;;;;;;5071547;28;20232;-65
2021/09/20 01:18:59;;;;;;;4.90;4.00;;;22.00;54.50;;;;;;5089867;28;20204;-65
2021/09/20 01:21:30;;;;;;;4.83;3.17;;;22.00;54.60;;;;;;5090178;28;20220;-65
2021/09/20 01:24:01;;;;;;;3.27;3.07;;;22.00;54.60;;;;;;5084256;28;20185;-65
2021/09/20 01:26:31;;;;;;;3.87;3.57;;;22.00;54.60;;;;;;5072150;28;20205;-65
2021/09/20 01:28:59;;;;;;;4.10;3.70;;;22.00;54.50;;;;;;5086546;28;20209;-65
2021/09/20 01:31:29;;;;;;;3.73;3.43;;;22.00;54.50;;;;;;5088783;28;20254;-65
2021/09/20 01:34:03;;;;;;;3.87;3.50;;;22.00;54.60;;;;;;5085639;28;20202;-65
2021/09/20 01:36:35;;;;;;;4.03;3.50;;;22.00;54.50;;;;;;5072302;28;20303;-65
2021/09/20 01:39:29;;;;;;;3.43;3.13;;;22.00;54.60;;;;;;5088451;28;20200;-65
2021/09/20 01:42:00;;;;;;;4.30;3.90;;;22.00;54.50;;;;;;5063990;28;20552;-65
2021/09/20 01:44:29;;;;;;;3.70;3.40;;;22.00;54.30;;;;;;5075415;28;20645;-65
2021/09/20 01:46:59;;;;;;;4.83;3.97;;;22.00;54.50;;;;;;5091702;28;20197;-65
2021/09/20 01:49:30;;;;;;;4.07;3.67;;;21.90;54.30;;;;;;5077850;28;20182;-65
2021/09/20 01:52:00;;;;;;;3.70;3.40;;;22.00;54.40;;;;;;5048580;28;20241;-65
2021/09/20 01:54:35;;;;;;;4.00;3.70;;;21.90;55.00;;;;;;5073983;28;20189;-65
2021/09/20 01:57:06;;;;;;;4.17;3.77;;;21.90;54.30;;;;;;5083195;28;20200;-65
2021/09/20 01:59:36;;;;;;;3.43;3.13;;;21.90;54.30;;;;;;5089882;28;20535;-65
2021/09/20 02:02:07;;;;;;;3.70;3.40;;;21.90;54.30;;;;;;5081820;28;20611;-65
2021/09/20 02:04:53;;;;;;;3.80;3.50;;;21.90;54.20;;;;;;5073956;28;20198;-65
2021/09/20 02:07:23;;;;;;;3.97;3.57;;;21.90;54.30;;;;;;5086690;28;20200;-65
2021/09/20 02:09:52;;;;;;;4.17;3.77;;;21.90;54.30;;;;;;5088570;28;20197;-65
2021/09/20 02:12:20;;;;;;;3.93;3.63;;;21.90;54.20;;;;;;5066168;28;20568;-65
2021/09/20 02:14:50;;;;;;;3.93;3.63;;;21.90;54.30;;;;;;5082195;28;20802;-65
2021/09/20 02:17:22;;;;;;;4.20;3.80;;;21.90;54.20;;;;;;5085122;28;20318;-65
2021/09/20 02:19:57;;;;;;;4.17;3.77;;;21.90;54.20;;;;;;5068715;28;20542;-65
2021/09/20 02:22:25;;;;;;;4.20;3.90;;;21.90;54.30;;;;;;5087073;28;20590;-65
2021/09/20 02:24:56;;;;;;;4.10;3.80;;;21.80;54.00;;;;;;5082420;28;20518;-65
2021/09/20 02:27:27;;;;;;;4.03;3.63;;;21.80;54.10;;;;;;5086717;28;20239;-65
2021/09/20 02:30:14;;;;;;;3.93;3.63;;;21.90;54.20;;;;;;5085738;28;20193;-65
2021/09/20 02:32:44;;;;;;;3.87;3.57;;;21.80;54.00;;;;;;5094570;28;20190;-65
2021/09/20 02:35:15;;;;;;;5.07;4.13;;;21.90;54.00;;;;;;5075991;28;20706;-66
2021/09/20 02:37:50;;;;;;;4.00;3.70;;;21.80;54.10;;;;;;5051626;28;20255;-66
2021/09/20 02:40:22;;;;;;;3.83;3.53;;;21.80;54.00;;;;;;5049862;28;20201;-66
2021/09/20 02:42:53;;;;;;;4.60;4.00;;;21.80;53.90;;;;;;5041862;28;20232;-66
2021/09/20 02:45:23;;;;;;;4.30;3.73;;;21.80;53.90;;;;;;5049454;28;20201;-66
2021/09/20 02:47:52;;;;;;;3.80;3.50;;;21.80;53.80;;;;;;5068333;28;20604;-66
2021/09/20 02:50:24;;;;;;;4.00;3.60;;;21.80;54.00;;;;;;5065718;28;20201;-66
2021/09/20 02:52:52;;;;;;;4.13;3.83;;;21.80;53.90;;;;;;5062815;28;20194;-66
2021/09/20 02:55:24;;;;;;;3.83;3.50;;;21.80;53.80;;;;;;5068690;28;20225;-66
2021/09/20 02:57:56;;;;;;;3.73;3.43;;;21.70;53.80;;;;;;5066100;28;20214;-66
2021/09/20 03:00:26;;;;;;;4.10;3.70;;;21.80;53.90;;;;;;5078524;28;20677;-66
2021/09/20 03:02:55;;;;;;;4.03;3.73;;;21.80;53.90;;;;;;5064291;28;20552;-66
2021/09/20 03:05:26;;;;;;;4.87;3.50;;;21.80;53.70;;;;;;5072152;28;20197;-66
2021/09/20 03:08:00;;;;;;;3.80;3.50;;;21.80;53.60;;;;;;5064541;28;20202;-65
2021/09/20 03:10:35;;;;;;;4.10;3.77;;;21.80;53.80;;;;;;5055448;28;20202;-65
2021/09/20 03:13:07;;;;;;;4.40;3.67;;;21.70;53.80;;;;;;5051770;28;20656;-65
2021/09/20 03:15:39;;;;;;;3.90;3.60;;;21.70;53.80;;;;;;5068806;28;20214;-65
2021/09/20 03:18:06;;;;;;;4.13;3.70;;;21.70;53.60;;;;;;5062892;28;20517;-65
2021/09/20 03:20:35;;;;;;;4.30;3.90;;;21.70;53.70;;;;;;5062187;28;20588;-65
2021/09/20 03:23:04;;;;;;;3.80;3.50;;;21.70;53.80;;;;;;5063145;28;20224;-65
2021/09/20 03:25:36;;;;;;;4.23;3.93;;;21.70;53.70;;;;;;5041142;28;20271;-65
2021/09/20 03:28:05;;;;;;;4.10;3.70;;;21.70;53.70;;;;;;5064742;28;20225;-65
2021/09/20 03:30:35;;;;;;;3.80;3.50;;;21.70;53.60;;;;;;5063923;28;21530;-65
2021/09/20 03:33:03;;;;;;;4.00;3.70;;;21.70;53.50;;;;;;5051310;28;20199;-65
2021/09/20 03:35:34;;;;;;;4.37;3.97;;;21.70;53.60;;;;;;5077968;28;20272;-65
2021/09/20 03:38:09;;;;;;;4.30;4.00;;;21.70;53.50;;;;;;5093487;28;20200;-65
2021/09/20 03:40:40;;;;;;;4.67;4.07;;;21.70;53.30;;;;;;5090466;28;20199;-65
2021/09/20 03:43:09;;;;;;;4.17;3.87;;;21.70;53.40;;;;;;5075208;28;20189;-65
2021/09/20 03:45:53;;;;;;;3.83;3.53;;;21.60;53.40;;;;;;5093605;28;20236;-65
2021/09/20 03:48:23;;;;;;;4.00;3.70;;;21.60;53.40;;;;;;5087737;28;20221;-65
2021/09/20 03:50:56;;;;;;;4.33;3.93;;;21.60;53.50;;;;;;5092894;28;20205;-65
2021/09/20 03:53:27;;;;;;;4.43;4.03;;;21.60;53.50;;;;;;5081860;28;20316;-66
2021/09/20 03:55:56;;;;;;;4.33;3.93;;;21.60;53.30;;;;;;5079844;28;20210;-65
2021/09/20 03:58:27;;;;;;;4.10;3.70;;;21.60;53.50;;;;;;5085125;28;20282;-65
2021/09/20 04:00:58;;;;;;;4.13;3.77;;;21.60;53.60;;;;;;5089987;28;20276;-65
2021/09/20 04:03:29;;;;;;;3.70;3.40;;;21.60;53.40;;;;;;5088817;28;20727;-65
2021/09/20 04:05:57;;;;;;;4.17;3.77;;;21.60;53.40;;;;;;5057186;28;20220;-65
2021/09/20 04:08:28;;;;;;;3.80;3.50;;;21.60;54.00;;;;;;5088733;28;20198;-65
2021/09/20 04:11:00;;;;;;;3.73;3.43;;;21.60;53.40;;;;;;5085442;28;20207;-65
2021/09/20 04:13:31;;;;;;;4.33;3.87;;;21.60;53.40;;;;;;5085566;28;20262;-65
2021/09/20 04:16:01;;;;;;;4.20;3.43;;;21.50;53.20;;;;;;5080963;28;20209;-65
2021/09/20 04:18:30;;;;;;;3.87;3.57;;;21.50;53.20;;;;;;5086720;28;20552;-65
2021/09/20 04:21:01;;;;;;;4.00;3.70;;;21.60;53.20;;;;;;5091023;28;20203;-65
2021/09/20 04:23:32;;;;;;;4.20;3.87;;;21.50;53.20;;;;;;5088705;28;20257;-66
2021/09/20 04:26:01;;;;;;;4.40;3.77;;;21.50;53.10;;;;;;5091444;28;20200;-65
2021/09/20 04:28:30;;;;;;;4.00;3.60;;;21.50;53.00;;;;;;5060052;28;20678;-66
2021/09/20 04:31:02;;;;;;;4.70;3.97;;;21.50;52.90;;;;;;5082020;28;20201;-65
2021/09/20 04:33:30;;;;;;;4.63;4.23;;;21.50;52.90;;;;;;5083746;28;20212;-65
2021/09/20 04:35:59;;;;;;;3.63;3.33;;;21.50;52.80;;;;;;5083466;28;20220;-65
2021/09/20 04:38:30;;;;;;;4.50;3.53;;;21.50;52.80;;;;;;5085871;28;20189;-65
2021/09/20 04:41:01;;;;;;;4.43;4.03;;;21.50;52.90;;;;;;5078540;28;20189;-65
2021/09/20 04:43:31;;;;;;;4.30;3.90;;;21.50;52.90;;;;;;5092676;28;20646;-65
2021/09/20 04:46:01;;;;;;;4.70;4.20;;;21.50;52.60;;;;;;5087237;28;20205;-65
2021/09/20 04:48:32;;;;;;;4.40;4.00;;;21.50;52.60;;;;;;5089177;28;20189;-65
2021/09/20 04:50:59;;;;;;;3.90;3.60;;;21.50;52.70;;;;;;5073390;28;20872;-65
2021/09/20 04:53:29;;;;;;;4.23;3.83;;;21.50;52.50;;;;;;5073953;28;20200;-65
2021/09/20 04:56:00;;;;;;;4.77;3.73;;;21.40;52.50;;;;;;5064521;28;20263;-65
2021/09/20 04:58:33;;;;;;;4.47;3.60;;;21.40;52.50;;;;;;5089897;28;20193;-65
2021/09/20 05:01:04;;;;;;;3.83;3.53;;;21.40;52.90;;;;;;5083028;28;20212;-65
2021/09/20 05:03:34;;;;;;;4.33;3.93;;;21.40;52.60;;;;;;5080570;28;20213;-65
2021/09/20 05:06:07;;;;;;;4.50;4.10;;;21.40;52.50;;;;;;5090116;28;20288;-66
2021/09/20 05:08:37;;;;;;;4.83;4.30;;;21.40;52.40;;;;;;5076716;28;20259;-66
2021/09/20 05:11:06;;;;;;;5.23;4.33;;;21.40;52.30;;;;;;5090695;28;20213;-64
2021/09/20 05:13:36;;;;;;;5.03;4.30;;;21.40;52.00;;;;;;5088598;28;20201;-65
2021/09/20 05:16:07;;;;;;;4.97;4.57;;;21.40;51.80;;;;;;5069679;28;20221;-65
2021/09/20 05:18:46;;;;;;;5.30;4.77;;;21.40;51.50;;;;;;5058943;28;20192;-66
2021/09/20 05:21:13;;;;;;;4.77;4.27;;;21.40;51.30;;;;;;5067425;28;20205;-66
2021/09/20 05:23:46;;;;;;;5.50;4.93;;;21.30;51.20;;;;;;5055092;28;20220;-66
2021/09/20 05:26:23;;;;;;;7.40;5.33;;;21.30;52.20;;;;;;5087441;28;20205;-65
2021/09/20 05:28:53;;;;;;;7.97;4.43;;;21.30;52.10;;;;;;5087673;28;20262;-65
2021/09/20 05:31:23;;;;;;;7.23;5.23;;;21.30;52.50;;;;;;5091483;28;20289;-64
2021/09/20 05:34:07;;;;;;;5.73;5.00;;;21.30;52.10;;;;;;5073105;28;20201;-63
2021/09/20 05:36:38;;;;;;;7.47;4.77;;;21.30;51.60;;;;;;5086115;28;20225;-63
2021/09/20 05:39:08;;;;;;;5.47;4.63;;;21.30;51.40;;;;;;5067803;28;20190;-63
2021/09/20 05:41:40;;;;;;;6.03;4.77;;;21.30;51.10;;;;;;5090557;28;20235;-65
2021/09/20 05:44:11;;;;;;;8.30;4.70;;;21.30;50.70;;;;;;5084783;28;20670;-65
2021/09/20 05:46:40;;;;;;;5.53;5.03;;;21.30;50.40;;;;;;5076114;28;20649;-63
2021/09/20 05:49:12;;;;;;;6.03;5.10;;;21.30;50.20;;;;;;5081222;28;20209;-63
2021/09/20 05:51:41;;;;;;;5.37;4.87;;;21.30;50.10;;;;;;5089553;28;20705;-64
2021/09/20 05:54:11;;;;;;;5.40;4.90;;;21.20;49.90;;;;;;5071191;28;20581;-63
2021/09/20 05:56:41;;;;;;;7.10;5.13;;;21.20;49.90;;;;;;5079364;28;20271;-65
2021/09/20 05:59:10;;;;;;;5.80;5.20;;;21.20;49.80;;;;;;5071007;28;20213;-65
2021/09/20 06:01:42;;;;;;;5.93;5.30;;;21.20;49.70;;;;;;5082457;28;20193;-64
2021/09/20 06:04:13;;;;;;;5.93;5.20;;;21.20;50.00;;;;;;5080110;28;20204;-62
2021/09/20 06:06:45;;;;;;;8.30;5.50;;;21.20;50.00;;;;;;5085645;28;20217;-63
2021/09/20 06:09:14;;;;;;;7.80;5.50;;;21.10;50.70;;;;;;5083732;28;20206;-63
2021/09/20 06:11:45;;;;;;;6.20;5.40;;;21.20;50.20;;;;;;5086818;28;20566;-64
2021/09/20 06:14:16;;;;;;;9.63;5.47;;;21.10;50.00;;;;;;5083412;28;20612;-63
2021/09/20 06:16:51;;;;;;;6.57;5.27;;;21.20;50.20;;;;;;5052867;28;20220;-64
2021/09/20 06:19:22;;;;;;;9.13;5.30;;;21.10;49.90;;;;;;5087611;28;21044;-63
2021/09/20 06:21:53;;;;;;;5.40;4.90;;;21.10;50.20;;;;;;5077817;28;20213;-65
2021/09/20 06:24:22;;;;;;;6.83;5.80;;;21.10;50.20;;;;;;5077595;28;20202;-65
2021/09/20 06:26:53;;;;;;;36.00;11.43;;;21.10;50.10;;;;;;5085640;28;20266;-66
2021/09/20 06:29:25;;;;;;;47.88;14.02;;;21.10;51.40;;;;;;5080197;28;20430;-67
2021/09/20 06:31:57;;;;;;;26.90;9.37;;;21.20;55.00;;;;;;5082146;28;20534;-67
2021/09/20 06:34:29;;;;;;;19.07;7.40;;;21.20;53.00;;;;;;5077939;28;20193;-67
2021/09/20 06:37:05;;;;;;;16.67;7.20;;;21.20;52.80;;;;;;5076427;28;20264;-67
2021/09/20 06:39:46;;;;;;;11.23;6.60;;;21.20;52.40;;;;;;5082777;28;20201;-65
2021/09/20 06:42:17;;;;;;;11.87;6.93;;;21.30;52.40;;;;;;5083663;28;20185;-64
2021/09/20 06:44:50;;;;;;;11.27;6.27;;;21.30;52.50;;;;;;5065349;28;20205;-62
2021/09/20 06:47:22;;;;;;;10.70;5.53;;;21.40;52.90;;;;;;5089037;28;20576;-64
2021/09/20 06:49:53;;;;;;;8.63;5.70;;;21.40;52.80;;;;;;5068535;28;20205;-63
2021/09/20 06:52:24;;;;;;;11.57;5.43;;;21.40;52.30;;;;;;5087707;28;20215;-63
2021/09/20 06:54:56;;;;;;;8.70;5.37;;;21.50;52.50;;;;;;5078362;28;20205;-65
2021/09/20 06:57:26;;;;;;;9.17;4.50;;;21.50;53.10;;;;;;5087253;28;20212;-66
2021/09/20 06:59:57;;;;;;;6.03;5.00;;;21.50;52.50;;;;;;5081492;28;20736;-63
2021/09/20 07:02:29;;;;;;;9.00;5.13;;;21.60;52.00;;;;;;5083620;28;20246;-66
2021/09/20 07:04:59;;;;;;;5.57;4.63;;;21.60;52.10;;;;;;5084347;28;20217;-63
2021/09/20 07:07:30;;;;;;;6.80;4.93;;;21.60;52.30;;;;;;5068275;28;20558;-65
2021/09/20 07:10:05;;;;;;;5.97;4.70;;;21.70;52.30;;;;;;5084626;28;20293;-64
2021/09/20 07:12:38;;;;;;;4.77;4.13;;;21.70;52.00;;;;;;5086062;28;20228;-65
2021/09/20 07:15:12;;;;;;;6.70;4.80;;;21.70;52.10;;;;;;5070956;28;20228;-65
2021/09/20 07:17:39;;;;;;;5.43;4.53;;;21.70;52.10;;;;;;5070507;28;20341;-66
2021/09/20 07:20:11;;;;;;;5.43;4.20;;;21.80;52.20;;;;;;5053957;28;20189;-65
2021/09/20 07:22:43;;;;;;;5.07;4.47;;;21.80;52.20;;;;;;5083854;28;20224;-65
2021/09/20 07:25:13;;;;;;;6.37;4.47;;;21.80;52.00;;;;;;5067659;28;20196;-64
2021/09/20 07:27:46;;;;;;;6.40;4.63;;;21.90;51.80;;;;;;5089368;28;20212;-66
2021/09/20 07:30:24;;;;;;;5.87;4.70;;;21.90;51.70;;;;;;5085037;28;20207;-65
2021/09/20 07:32:55;;;;;;;7.67;4.90;;;21.90;51.30;;;;;;5082023;28;20209;-67
2021/09/20 07:35:23;;;;;;;8.47;5.07;;;21.90;51.30;;;;;;5083789;28;20232;-66
2021/09/20 07:37:55;;;;;;;6.17;4.27;;;21.90;51.30;;;;;;5087176;28;20817;-65
2021/09/20 07:40:27;;;;;;;6.63;4.10;;;22.00;51.40;;;;;;5067801;28;20216;-65
2021/09/20 07:43:02;;;;;;;8.97;5.10;;;22.00;51.50;;;;;;5081616;28;20485;-67
2021/09/20 07:45:45;;;;;;;5.50;4.87;;;22.00;51.60;;;;;;5070200;28;20272;-66
2021/09/20 07:48:14;;;;;;;5.70;4.50;;;22.00;51.20;;;;;;5094579;28;20619;-66
2021/09/20 07:50:45;;;;;;;11.50;5.50;;;22.10;51.20;;;;;;5082130;28;20270;-64
2021/09/20 07:53:14;;;;;;;7.83;4.73;;;22.10;50.90;;;;;;5090019;28;20233;-66
2021/09/20 07:55:47;;;;;;;7.10;4.40;;;22.10;50.80;;;;;;5070353;28;20204;-65
2021/09/20 07:58:16;;;;;;;6.70;4.63;;;22.10;51.00;;;;;;5064577;28;20217;-65
2021/09/20 08:00:44;;;;;;;5.70;4.83;;;22.10;50.90;;;;;;5084381;28;20193;-64
2021/09/20 08:03:15;;;;;;;5.67;5.00;;;22.10;50.80;;;;;;5068756;28;20201;-64
2021/09/20 08:05:43;;;;;;;7.10;5.40;;;22.20;50.90;;;;;;5087388;28;20924;-66
2021/09/20 08:08:14;;;;;;;7.03;5.03;;;22.20;50.80;;;;;;5066843;28;20721;-66
2021/09/20 08:10:43;;;;;;;6.83;5.10;;;22.20;50.70;;;;;;5069723;28;20221;-66
2021/09/20 08:13:15;;;;;;;6.27;5.60;;;22.20;50.60;;;;;;5084009;28;20204;-65
2021/09/20 08:15:47;;;;;;;13.93;5.53;;;22.20;50.20;;;;;;5064490;28;20197;-64
2021/09/20 08:18:17;;;;;;;9.27;5.30;;;22.20;50.20;;;;;;5080197;28;20232;-65
2021/09/20 08:20:50;;;;;;;6.30;5.07;;;22.30;50.30;;;;;;5085784;28;20216;-64
2021/09/20 08:23:30;;;;;;;6.83;5.03;;;22.30;50.30;;;;;;5068966;28;20556;-65
2021/09/20 08:26:02;;;;;;;8.63;5.30;;;22.30;50.20;;;;;;5091665;28;20193;-65
2021/09/20 08:28:33;;;;;;;6.83;4.77;;;22.30;50.10;;;;;;5086600;28;20931;-65
2021/09/20 08:31:04;;;;;;;8.37;5.17;;;22.30;50.20;;;;;;5086113;28;20807;-64
2021/09/20 08:33:35;;;;;;;6.50;4.97;;;22.40;50.00;;;;;;5071508;28;20209;-65
2021/09/20 08:36:04;;;;;;;5.53;4.87;;;22.40;50.10;;;;;;5089080;28;20245;-65
2021/09/20 08:38:35;;;;;;;6.83;4.87;;;22.40;49.90;;;;;;5086201;28;20289;-65
2021/09/20 08:41:07;;;;;;;5.07;4.57;;;22.40;49.90;;;;;;5087000;28;20200;-65
2021/09/20 08:43:41;;;;;;;5.50;5.00;;;22.40;49.80;;;;;;5074070;28;20189;-63
2021/09/20 08:46:11;;;;;;;7.70;4.43;;;22.40;49.90;;;;;;5088540;28;20209;-65
2021/09/20 08:48:48;;;;;;;8.90;4.73;;;22.40;50.10;;;;;;5071572;28;20213;-66
2021/09/20 08:51:21;;;;;;;9.00;4.90;;;22.40;50.00;;;;;;5093004;28;20189;-65
2021/09/20 08:53:51;;;;;;;5.70;4.63;;;22.50;50.00;;;;;;5088895;28;20236;-66
2021/09/20 08:56:22;;;;;;;7.37;5.17;;;22.50;49.80;;;;;;5068529;28;20205;-65
2021/09/20 08:58:53;;;;;;;6.17;4.90;;;22.50;49.70;;;;;;5070481;28;20209;-64
2021/09/20 09:01:24;;;;;;;5.90;4.87;;;22.50;49.80;;;;;;5089221;28;20204;-65
2021/09/20 09:04:15;;;;;;;7.50;4.70;;;22.50;49.80;;;;;;5056635;28;20250;-64
2021/09/20 09:07:15;;;;;;;6.70;4.90;;;22.50;49.80;;;;;;5084970;28;20807;-64
2021/09/20 09:09:48;;;;;;;6.40;4.60;;;22.50;49.70;;;;;;5082552;28;20209;-66
2021/09/20 09:12:30;;;;;;;5.37;4.67;;;22.60;49.50;;;;;;5068217;28;20548;-67
2021/09/20 09:15:18;;;;;;;5.30;4.50;;;22.60;49.60;;;;;;5064506;28;20209;-70
2021/09/20 09:17:49;;;;;;;5.60;5.03;;;22.60;49.50;;;;;;5087951;28;20217;-69
2021/09/20 09:20:41;;;;;;;7.67;5.00;;;22.60;49.40;;;;;;5084829;28;20234;-69
2021/09/20 09:23:13;;;;;;;5.50;5.00;;;22.60;50.00;;;;;;5068994;28;20205;-67
2021/09/20 09:25:49;;;;;;;6.63;5.10;;;22.70;50.00;;;;;;5084090;28;20735;-66
2021/09/20 09:28:24;;;;;;;7.63;5.00;;;22.60;50.40;;;;;;5057913;28;20189;-67
2021/09/20 09:30:58;;;;;;;5.67;4.90;;;22.70;50.60;;;;;;5084209;28;20233;-67
2021/09/20 09:33:46;;;;;;;6.27;5.03;;;22.70;50.80;;;;;;5071497;28;20189;-68
2021/09/20 09:36:17;;;;;;;5.23;4.77;;;22.80;51.10;;;;;;5071168;28;20719;-68
2021/09/20 09:39:06;;;;;;;6.93;4.97;;;22.80;51.20;;;;;;5071039;28;20210;-68
2021/09/20 09:41:44;;;;;;;6.00;5.47;;;22.80;51.00;;;;;;5088717;28;20185;-66
2021/09/20 09:44:34;;;;;;;5.83;5.23;;;22.80;50.20;;;;;;5081077;28;20262;-67
2021/09/20 09:47:33;;;;;;;6.37;4.83;;;22.80;50.40;;;;;;5082593;28;20794;-67
2021/09/20 09:50:27;;;;;;;5.50;5.00;;;22.80;50.30;;;;;;5080553;28;20217;-68
2021/09/20 09:53:00;;;;;;;6.90;4.67;;;22.80;50.00;;;;;;5059593;28;20617;-68
2021/09/20 09:55:32;;;;;;;5.63;5.00;;;22.90;50.10;;;;;;5089185;28;20822;-65
2021/09/20 09:58:14;;;;;;;5.17;4.63;;;22.90;49.70;;;;;;5090941;28;20240;-67
2021/09/20 10:00:46;;;;;;;5.00;4.60;;;22.90;49.90;;;;;;5087252;28;20258;-65
2021/09/20 10:03:17;;;;;;;5.50;5.00;;;22.90;49.90;;;;;;5088854;28;20279;-66
2021/09/20 10:06:00;;;;;;;5.63;5.13;;;22.90;49.70;;;;;;5064100;28;20589;-66
2021/09/20 10:08:29;;;;;;;7.20;5.83;;;22.90;49.70;;;;;;5080974;28;20686;-66
2021/09/20 10:11:01;;;;;;;9.43;5.73;;;22.90;49.00;;;;;;5051131;28;20221;-65
2021/09/20 10:13:29;;;;;;;11.37;5.57;;;22.90;48.80;;;;;;5058612;28;20209;-66
2021/09/20 10:16:01;;;;;;;6.77;5.50;;;22.90;48.20;;;;;;5072660;28;20200;-66
2021/09/20 10:18:35;;;;;;;5.73;5.07;;;22.80;48.10;;;;;;5091365;28;20265;-66
2021/09/20 10:21:06;;;;;;;6.33;5.73;;;22.80;48.00;;;;;;5090306;28;20217;-65
2021/09/20 10:23:39;;;;;;;6.77;5.37;;;22.80;48.30;;;;;;5086873;28;20845;-68
2021/09/20 10:26:12;;;;;;;5.47;4.77;;;22.80;48.40;;;;;;5072338;28;20231;-67
2021/09/20 10:28:42;;;;;;;7.47;4.90;;;22.90;48.50;;;;;;5068323;28;20212;-67
2021/09/20 10:31:12;;;;;;;5.07;4.67;;;22.90;48.90;;;;;;5084376;28;20196;-67
2021/09/20 10:33:42;;;;;;;5.73;5.23;;;22.90;48.70;;;;;;5068728;28;20205;-66
2021/09/20 10:36:14;;;;;;;5.30;4.73;;;22.90;48.40;;;;;;5084526;28;20569;-68
2021/09/20 10:38:53;;;;;;;4.80;4.40;;;22.90;48.80;;;;;;5059120;28;20286;-67
2021/09/20 10:41:39;;;;;;;6.30;5.00;;;22.90;48.80;;;;;;5072428;28;20203;-68
2021/09/20 10:44:12;;;;;;;5.47;4.50;;;23.00;49.10;;;;;;5085406;28;20185;-69
2021/09/20 10:47:18;;;;;;;5.43;4.70;;;23.00;49.10;;;;;;5088293;28;20196;-66
2021/09/20 10:49:52;;;;;;;4.60;4.10;;;23.00;49.30;;;;;;5082916;28;20248;-65
2021/09/20 10:52:25;;;;;;;4.63;4.20;;;23.00;49.50;;;;;;5077024;28;20201;-65
2021/09/20 10:55:10;;;;;;;6.60;4.30;;;23.00;49.40;;;;;;5075176;28;20202;-67
2021/09/20 10:57:41;;;;;;;5.03;4.43;;;23.10;48.90;;;;;;5080118;28;20780;-68
2021/09/20 11:00:25;;;;;;;4.90;4.40;;;23.10;48.50;;;;;;5085410;28;20204;-67
2021/09/20 11:02:52;;;;;;;6.77;3.97;;;23.10;48.80;;;;;;5062871;28;20185;-67
2021/09/20 11:05:29;;;;;;;8.23;5.00;;;23.10;48.50;;;;;;5089732;28;20243;-68
2021/09/20 11:08:24;;;;;;;4.70;4.30;;;23.20;48.00;;;;;;5070564;28;20548;-70
2021/09/20 11:10:56;;;;;;;5.30;4.80;;;23.20;48.00;;;;;;5068187;28;20413;-66
2021/09/20 11:13:26;;;;;;;4.20;3.80;;;23.20;48.30;;;;;;5065402;28;20197;-66
2021/09/20 11:16:02;;;;;;;7.23;4.77;;;23.20;47.60;;;;;;5084138;28;20207;-66
2021/09/20 11:18:35;;;;;;;4.80;4.30;;;23.20;47.10;;;;;;5069305;28;20220;-66
2021/09/20 11:21:07;;;;;;;4.93;4.33;;;23.20;47.00;;;;;;5063020;28;20566;-65
2021/09/20 11:23:39;;;;;;;5.20;4.70;;;23.10;46.80;;;;;;5086442;28;20189;-65
2021/09/20 11:26:16;;;;;;;5.70;4.87;;;23.10;46.60;;;;;;5066276;28;20201;-65
2021/09/20 11:28:52;;;;;;;4.77;4.27;;;23.10;46.60;;;;;;5079593;28;20239;-66
2021/09/20 11:31:28;;;;;;;5.27;4.30;;;23.10;47.30;;;;;;5064726;28;21476;-64
2021/09/20 11:34:01;;;;;;;5.90;5.27;;;23.10;47.30;;;;;;5060264;28;20523;-64
2021/09/20 11:36:34;;;;;;;5.47;4.97;;;23.00;46.30;;;;;;5087029;28;20683;-64
2021/09/20 11:39:11;;;;;;;6.13;5.00;;;23.00;46.40;;;;;;5034826;28;20228;-64
2021/09/20 11:41:38;;;;;;;8.70;5.13;;;23.10;46.70;;;;;;5069893;28;20764;-65
2021/09/20 11:44:07;;;;;;;7.20;5.27;;;23.00;46.70;;;;;;5081592;28;20190;-65
2021/09/20 11:46:36;;;;;;;5.37;4.87;;;23.00;47.30;;;;;;5081863;28;20280;-66
2021/09/20 11:49:09;;;;;;;6.27;5.37;;;23.00;47.70;;;;;;5070813;28;20223;-66
2021/09/20 11:51:41;;;;;;;7.43;5.80;;;23.00;47.20;;;;;;5067668;28;20647;-66
2021/09/20 11:54:34;;;;;;;6.53;4.73;;;23.00;47.30;;;;;;5084913;28;20197;-66
2021/09/20 11:57:25;;;;;;;6.22;4.45;;;23.00;47.50;;;;;;5083243;28;20447;-66
2021/09/20 12:00:05;;;;;;;7.07;4.63;;;23.00;47.90;;;;;;5068016;28;20363;-66
2021/09/20 12:02:39;;;;;;;7.17;4.13;;;23.00;48.60;;;;;;5074497;28;20209;-63
2021/09/20 12:05:12;;;;;;;7.40;5.47;;;23.10;48.60;;;;;;5088707;28;20224;-65
2021/09/20 12:07:50;;;;;;;7.17;5.57;;;23.10;47.20;;;;;;5089604;28;20277;-64
2021/09/20 12:10:31;;;;;;;6.60;4.90;;;23.10;46.80;;;;;;5080309;28;20700;-65
2021/09/20 12:13:06;;;;;;;5.77;5.07;;;23.10;47.40;;;;;;5079355;28;20597;-65
2021/09/20 12:15:37;;;;;;;9.57;5.67;;;23.10;47.20;;;;;;5055677;28;20205;-67
2021/09/20 12:18:24;;;;;;;7.27;5.40;;;23.10;46.80;;;;;;5074296;28;20236;-67
2021/09/20 12:20:59;;;;;;;5.77;4.53;;;23.20;47.40;;;;;;5087461;28;20201;-67
2021/09/20 12:23:38;;;;;;;8.30;5.07;;;23.20;48.20;;;;;;5082855;28;20201;-66
2021/09/20 12:26:14;;;;;;;5.20;4.77;;;23.20;48.40;;;;;;5087902;28;20204;-67
2021/09/20 12:28:57;;;;;;;6.27;4.80;;;23.30;47.40;;;;;;5085212;28;20212;-66
2021/09/20 12:31:40;;;;;;;6.20;4.80;;;23.30;47.50;;;;;;5087129;28;20267;-64
2021/09/20 12:34:19;;;;;;;5.10;4.60;;;23.30;47.60;;;;;;5072091;28;20201;-64
2021/09/20 12:36:57;;;;;;;8.53;4.60;;;23.30;47.20;;;;;;5094113;28;20762;-66
2021/09/20 12:39:32;;;;;;;5.63;4.27;;;23.40;47.80;;;;;;5048894;28;20229;-67
2021/09/20 12:42:11;;;;;;;4.27;3.87;;;23.40;48.50;;;;;;5074963;28;20204;-66
2021/09/20 12:44:56;;;;;;;5.10;4.13;;;23.50;48.70;;;;;;5088165;28;20877;-67
2021/09/20 12:47:30;;;;;;;4.73;4.27;;;23.50;48.70;;;;;;5081862;28;20287;-67
2021/09/20 12:50:10;;;;;;;5.40;4.83;;;23.50;48.30;;;;;;5089424;28;20288;-67
2021/09/20 12:52:51;;;;;;;5.47;4.97;;;23.60;47.10;;;;;;5064208;28;20197;-69
2021/09/20 12:55:45;;;;;;;6.27;4.80;;;23.60;46.40;;;;;;5070089;28;20185;-67
2021/09/20 12:58:26;;;;;;;9.23;4.73;;;23.60;47.10;;;;;;5085913;28;20709;-68
2021/09/20 13:00:59;;;;;;;15.20;5.40;;;23.60;47.90;;;;;;5038472;28;20211;-69
2021/09/20 13:03:37;;;;;;;10.67;5.23;;;23.60;48.30;;;;;;5090128;28;20739;-67
2021/09/20 13:06:14;;;;;;;10.43;5.20;;;23.70;48.80;;;;;;5082223;28;20270;-68
2021/09/20 13:09:06;;;;;;;7.13;4.63;;;23.70;48.40;;;;;;5069243;28;20221;-65
2021/09/20 13:11:41;;;;;;;14.27;5.77;;;23.70;48.20;;;;;;5082504;28;20212;-66
2021/09/20 13:14:24;;;;;;;7.87;4.87;;;23.70;48.40;;;;;;5071894;28;20726;-67
2021/09/20 13:17:04;;;;;;;5.63;4.60;;;23.80;48.20;;;;;;5078360;28;20212;-70